Time;durP1;ratioP1;P1;durP2;ratioP2;P2;SDS_P1;SDS_P2;PMS_P1;PMS_P2;Temp;Humidity;BMP_temperature;BMP_pressure;BME280_temperature;BME280_humidity;BME280_pressure;Samples;Min_cycle;Max_cycle;Signal;HPM_P1;HPM_P2
2022/09/06 00:00:51;;;;;;;20.98;18.98;;;25.00;60.00;;;;;;4743550;55;21107;-33
2022/09/06 00:05:52;;;;;;;20.33;18.40;;;25.00;60.00;;;;;;4762817;55;21035;-32
2022/09/06 00:10:57;;;;;;;19.98;18.08;;;25.00;60.00;;;;;;4753670;55;21040;-28
2022/09/06 00:16:14;;;;;;;20.12;17.95;;;25.00;60.00;;;;;;4756277;55;20992;-35
2022/09/06 00:21:19;;;;;;;20.62;18.40;;;25.00;60.00;;;;;;4737084;59;21019;-35
2022/09/06 00:26:21;;;;;;;19.25;17.33;;;24.90;60.00;;;;;;4780897;55;21038;-26
2022/09/06 00:31:24;;;;;;;18.98;17.23;;;25.00;60.00;;;;;;4738137;55;21059;-27
2022/09/06 00:36:25;;;;;;;19.50;17.70;;;25.00;60.00;;;;;;4771677;55;21399;-26
2022/09/06 00:41:26;;;;;;;19.75;17.80;;;25.00;60.10;;;;;;4736073;59;20991;-29
2022/09/06 00:46:29;;;;;;;19.58;17.85;;;24.90;60.00;;;;;;4744418;55;21059;-29
2022/09/06 00:51:32;;;;;;;18.70;16.87;;;24.90;60.00;;;;;;4746135;55;21074;-36
2022/09/06 00:56:37;;;;;;;18.90;17.10;;;24.90;59.90;;;;;;4800954;55;21473;-32
2022/09/06 01:01:38;;;;;;;18.87;17.15;;;24.90;60.00;;;;;;4785003;55;21015;-32
2022/09/06 01:06:54;;;;;;;18.55;16.77;;;24.90;59.90;;;;;;4744743;55;20980;-37
2022/09/06 01:12:06;;;;;;;;;;;24.90;59.90;;;;;;4740091;55;21000;-35
2022/09/06 01:21:51;;;;;;;17.80;16.12;;;24.90;59.90;;;;;;4758489;55;20093;-33
2022/09/06 01:28:03;;;;;;;18.23;16.58;;;24.90;59.90;;;;;;4786332;55;21675;-36
2022/09/06 01:33:18;;;;;;;17.65;15.95;;;24.90;59.90;;;;;;4735940;59;21040;-29
2022/09/06 01:38:19;;;;;;;17.70;16.10;;;24.90;59.80;;;;;;4754543;55;20984;-36
2022/09/06 01:43:37;;;;;;;17.00;15.45;;;24.90;59.90;;;;;;4764622;55;21004;-31
2022/09/06 01:52:33;;;;;;;17.52;15.93;;;24.90;59.90;;;;;;4745954;55;21039;-37
2022/09/06 01:57:56;;;;;;;17.75;15.95;;;24.90;60.00;;;;;;4742033;55;21118;-33
2022/09/06 02:06:01;;;;;;;16.73;15.23;;;24.90;59.90;;;;;;4753944;55;21032;-35
2022/09/06 02:11:06;;;;;;;;;;;24.90;60.00;;;;;;4757292;55;20995;-37
2022/09/06 02:16:11;;;;;;;16.58;14.98;;;24.90;60.00;;;;;;4744006;55;20133;-30
2022/09/06 02:21:15;;;;;;;16.90;15.30;;;24.90;59.80;;;;;;4737145;55;21055;-26
2022/09/06 02:26:25;;;;;;;16.23;14.73;;;24.90;59.80;;;;;;4782676;55;21035;-28
2022/09/06 02:31:35;;;;;;;16.20;14.73;;;24.90;59.90;;;;;;4792518;55;20980;-32
2022/09/06 02:36:36;;;;;;;16.55;14.95;;;24.90;59.80;;;;;;4760386;55;21015;-35
2022/09/06 02:41:40;;;;;;;16.42;14.85;;;24.90;59.80;;;;;;4754734;55;21127;-29
2022/09/06 02:46:40;;;;;;;15.48;14.10;;;24.90;59.80;;;;;;4751709;55;21047;-35
2022/09/06 02:51:41;;;;;;;17.08;15.48;;;24.90;59.80;;;;;;4736500;59;21000;-30
2022/09/06 02:56:42;;;;;;;16.67;15.07;;;24.90;60.00;;;;;;4752563;55;21485;-34
2022/09/06 03:01:43;;;;;;;16.08;14.68;;;24.90;59.80;;;;;;4738487;55;21090;-30
2022/09/06 03:06:44;;;;;;;15.50;14.20;;;24.90;59.70;;;;;;4753011;55;21015;-34
2022/09/06 03:11:44;;;;;;;15.77;14.38;;;24.90;59.70;;;;;;4775673;55;22206;-32
2022/09/06 03:16:45;;;;;;;15.85;14.45;;;24.90;59.90;;;;;;4765525;55;21402;-32
2022/09/06 03:21:46;;;;;;;15.68;14.27;;;24.90;59.80;;;;;;4747997;55;21027;-36
2022/09/06 03:26:47;;;;;;;15.75;14.25;;;24.90;59.70;;;;;;4744637;55;20995;-25
2022/09/06 03:31:48;;;;;;;15.93;14.35;;;24.90;59.60;;;;;;4756123;55;21486;-27
2022/09/06 03:36:48;;;;;;;16.02;14.52;;;24.90;59.70;;;;;;4749908;55;20992;-27
2022/09/06 03:41:49;;;;;;;15.48;14.02;;;24.90;59.70;;;;;;4757853;55;21083;-28
2022/09/06 03:46:53;;;;;;;15.07;13.52;;;24.90;59.60;;;;;;4736337;59;21059;-26
2022/09/06 03:51:54;;;;;;;15.73;14.32;;;24.90;59.80;;;;;;4737173;59;21460;-33
2022/09/06 03:56:56;;;;;;;15.40;14.05;;;24.90;59.70;;;;;;4736801;59;21106;-32
2022/09/06 04:01:56;;;;;;;15.07;13.68;;;24.90;59.60;;;;;;4761091;55;21541;-29
2022/09/06 04:06:57;;;;;;;14.98;13.60;;;24.90;59.50;;;;;;4782892;55;21016;-30
2022/09/06 04:11:58;;;;;;;14.87;13.52;;;24.90;59.60;;;;;;4753722;55;21040;-32
2022/09/06 04:16:59;;;;;;;15.73;14.27;;;24.90;59.60;;;;;;4789714;55;21027;-36
2022/09/06 04:22:00;;;;;;;15.05;13.65;;;24.90;59.60;;;;;;4777701;55;22336;-30
2022/09/06 04:27:00;;;;;;;14.95;13.65;;;24.90;59.70;;;;;;4775541;55;20992;-38
2022/09/06 04:32:02;;;;;;;15.75;14.25;;;24.80;59.70;;;;;;4751638;55;21007;-25
2022/09/06 04:37:03;;;;;;;14.75;13.45;;;24.90;59.60;;;;;;4783558;55;20980;-35
2022/09/06 04:42:04;;;;;;;16.00;14.48;;;24.90;59.70;;;;;;4755250;55;21019;-32
2022/09/06 04:47:17;;;;;;;15.50;14.10;;;24.80;59.40;;;;;;4739971;55;21079;-26
2022/09/06 04:52:18;;;;;;;14.93;13.52;;;24.80;59.40;;;;;;4761966;55;21047;-29
2022/09/06 04:57:19;;;;;;;15.18;13.70;;;24.80;59.40;;;;;;4746621;55;20996;-33
2022/09/06 05:02:19;;;;;;;15.38;13.77;;;24.80;59.20;;;;;;4735366;59;21079;-37
2022/09/06 05:07:20;;;;;;;15.00;13.62;;;24.80;59.30;;;;;;4736389;59;21000;-33
2022/09/06 05:12:21;;;;;;;14.65;13.35;;;24.80;59.10;;;;;;4781007;55;21055;-35
2022/09/06 05:17:22;;;;;;;14.60;13.30;;;24.80;59.00;;;;;;4763535;55;21532;-31
2022/09/06 05:22:23;;;;;;;13.95;12.68;;;24.80;59.00;;;;;;4738741;55;21007;-37
2022/09/06 05:27:24;;;;;;;14.57;13.18;;;24.80;59.00;;;;;;4738741;55;21458;-33
2022/09/06 05:32:25;;;;;;;15.10;13.60;;;24.80;59.00;;;;;;4739003;55;20987;-30
2022/09/06 05:37:26;;;;;;;14.55;13.25;;;24.80;59.00;;;;;;4759433;55;21044;-37
2022/09/06 05:42:26;;;;;;;14.82;13.45;;;24.80;58.90;;;;;;4735917;59;21083;-35
2022/09/06 05:47:29;;;;;;;14.87;13.55;;;24.80;59.00;;;;;;4748686;55;21021;-32
2022/09/06 05:52:31;;;;;;;14.85;13.45;;;24.80;59.00;;;;;;4736419;55;21617;-32
2022/09/06 05:57:34;;;;;;;14.25;12.95;;;24.80;58.90;;;;;;4753821;55;21445;-35
2022/09/06 06:02:35;;;;;;;14.55;13.07;;;24.80;58.80;;;;;;4734697;59;21713;-24
2022/09/06 06:07:35;;;;;;;14.57;13.27;;;24.80;58.70;;;;;;4752106;55;21079;-27
2022/09/06 06:12:37;;;;;;;14.52;13.20;;;24.80;58.80;;;;;;4734321;59;21051;-29
2022/09/06 06:17:38;;;;;;;13.55;12.40;;;24.80;58.70;;;;;;4737491;55;21083;-26
2022/09/06 06:22:41;;;;;;;14.45;13.05;;;24.80;58.70;;;;;;4751043;55;20983;-26
2022/09/06 06:27:42;;;;;;;13.68;12.37;;;24.80;58.70;;;;;;4773539;55;21003;-26
2022/09/06 06:32:43;;;;;;;14.85;13.35;;;24.80;58.60;;;;;;4738632;55;21472;-32
2022/09/06 06:37:44;;;;;;;14.73;13.32;;;24.80;58.50;;;;;;4765082;55;21030;-34
2022/09/06 06:42:45;;;;;;;14.82;13.43;;;24.80;58.70;;;;;;4734481;59;20999;-35
2022/09/06 06:47:49;;;;;;;14.73;13.43;;;24.80;58.70;;;;;;4732639;56;20988;-33
2022/09/06 06:52:50;;;;;;;16.10;13.60;;;24.80;58.70;;;;;;4742293;55;21334;-31
2022/09/06 06:57:51;;;;;;;14.32;13.02;;;24.80;58.70;;;;;;4732929;59;21059;-26
2022/09/06 07:02:52;;;;;;;23.60;18.52;;;24.80;58.60;;;;;;4736131;55;21054;-33
2022/09/06 07:07:53;;;;;;;24.85;19.50;;;24.70;57.30;;;;;;4743824;55;22134;-29
2022/09/06 07:12:53;;;;;;;27.90;19.40;;;24.70;57.40;;;;;;4745302;55;21035;-33
2022/09/06 07:17:55;;;;;;;27.40;20.58;;;24.70;57.40;;;;;;4761699;55;21244;-36
2022/09/06 07:23:07;;;;;;;36.40;24.00;;;24.70;57.50;;;;;;4736098;59;21552;-35
2022/09/06 07:28:07;;;;;;;35.65;29.25;;;24.70;57.60;;;;;;4736225;59;21043;-29
2022/09/06 07:33:08;;;;;;;43.45;38.78;;;24.70;57.70;;;;;;4737270;55;21047;-35
2022/09/06 07:38:09;;;;;;;52.62;43.85;;;24.70;57.90;;;;;;4738826;55;21020;-33
2022/09/06 07:43:10;;;;;;;49.60;42.00;;;24.70;58.60;;;;;;4762354;55;21060;-29
2022/09/06 07:48:11;;;;;;;51.83;42.08;;;24.70;58.10;;;;;;4736417;56;21039;-31
2022/09/06 07:53:12;;;;;;;55.00;46.20;;;24.70;58.90;;;;;;4736448;55;20971;-32
2022/09/06 07:58:13;;;;;;;50.33;42.42;;;24.70;58.40;;;;;;4750945;55;21032;-34
2022/09/06 08:03:14;;;;;;;69.22;57.92;;;24.80;59.00;;;;;;4735763;56;21131;-33
2022/09/06 08:08:14;;;;;;;72.07;59.25;;;24.80;58.60;;;;;;4737216;55;21000;-27
2022/09/06 08:13:15;;;;;;;66.45;57.28;;;24.80;59.00;;;;;;5056574;55;21540;-34
2022/09/06 08:18:16;;;;;;;61.17;52.20;;;24.80;59.00;;;;;;4735355;59;21015;-32
2022/09/06 08:23:17;;;;;;;48.10;42.62;;;24.80;59.30;;;;;;4738212;55;21481;-36
2022/09/06 08:28:18;;;;;;;53.87;44.10;;;24.80;59.50;;;;;;4741748;55;21149;-33
2022/09/06 08:33:20;;;;;;;56.37;48.83;;;24.80;59.80;;;;;;4775198;55;21027;-35
2022/09/06 08:38:21;;;;;;;50.40;44.92;;;24.90;59.70;;;;;;4754235;55;21477;-36
2022/09/06 08:43:22;;;;;;;50.97;44.78;;;24.90;59.50;;;;;;4740243;55;21043;-28
2022/09/06 08:48:26;;;;;;;49.88;43.83;;;24.90;59.50;;;;;;4745339;55;20999;-36
2022/09/06 08:53:27;;;;;;;56.90;45.55;;;24.90;59.50;;;;;;4776166;55;21019;-31
2022/09/06 08:59:16;;;;;;;53.50;47.78;;;25.00;59.50;;;;;;4770687;55;21482;-31
2022/09/06 09:04:22;;;;;;;48.78;43.53;;;25.00;59.60;;;;;;4736987;55;21524;-39
2022/09/06 09:09:26;;;;;;;49.90;44.22;;;25.00;60.00;;;;;;4741398;55;21058;-31
2022/09/06 09:14:30;;;;;;;51.25;43.35;;;25.00;60.00;;;;;;4759540;55;21874;-32
2022/09/06 09:19:35;;;;;;;50.05;44.50;;;25.00;59.90;;;;;;4746393;55;20983;-30
2022/09/06 09:24:36;;;;;;;53.90;47.90;;;25.10;60.00;;;;;;4733386;55;21634;-30
2022/09/06 09:30:01;;;;;;;62.40;52.33;;;25.10;60.60;;;;;;4749751;55;21075;-31
2022/09/06 09:37:10;;;;;;;58.95;52.58;;;25.10;60.80;;;;;;4743645;55;21090;-34
2022/09/06 09:42:23;;;;;;;63.22;54.30;;;25.10;61.20;;;;;;4752399;55;21537;-26
2022/09/06 09:47:29;;;;;;;55.50;47.92;;;25.10;61.30;;;;;;4782055;55;21087;-34
2022/09/06 09:52:31;;;;;;;57.58;46.95;;;25.10;61.20;;;;;;4749189;55;20995;-36
2022/09/06 09:57:45;;;;;;;53.67;44.50;;;25.20;61.30;;;;;;4743724;55;21023;-37
2022/09/06 10:02:46;;;;;;;54.53;45.70;;;25.20;61.10;;;;;;4751968;55;21166;-33
2022/09/06 10:07:54;;;;;;;54.33;46.78;;;25.20;60.90;;;;;;4751840;55;21604;-37
2022/09/06 10:14:10;;;;;;;50.97;43.10;;;25.20;60.70;;;;;;4765363;55;21019;-34
2022/09/06 10:19:22;;;;;;;42.03;35.95;;;25.20;60.00;;;;;;4750067;55;21460;-34
2022/09/06 10:29:49;;;;;;;47.97;41.33;;;25.30;59.30;;;;;;4751709;55;21043;-40
2022/09/06 10:35:38;;;;;;;52.85;41.60;;;25.30;59.00;;;;;;4746488;55;21493;-37
2022/09/06 10:41:19;;;;;;;60.55;50.03;;;25.30;58.60;;;;;;4740632;55;20996;-35
2022/09/06 10:46:25;;;;;;;67.85;49.95;;;25.30;58.40;;;;;;4772270;55;21027;-34
2022/09/06 10:51:49;;;;;;;62.97;47.93;;;25.40;58.50;;;;;;4745985;55;21008;-37
2022/09/06 10:57:52;;;;;;;53.65;42.58;;;25.40;58.30;;;;;;4758038;55;20995;-26
2022/09/06 11:03:23;;;;;;;50.88;43.47;;;25.40;57.10;;;;;;4734106;59;21074;-33
2022/09/06 11:10:08;;;;;;;50.35;42.08;;;25.40;56.90;;;;;;4739277;55;21007;-28
2022/09/06 11:15:12;;;;;;;55.47;46.00;;;25.40;56.80;;;;;;4741416;55;21485;-29
2022/09/06 11:20:25;;;;;;;52.38;43.35;;;25.40;56.60;;;;;;4745794;55;21107;-32
2022/09/06 11:26:42;;;;;;;52.72;43.72;;;25.40;56.60;;;;;;4758533;55;21079;-29
2022/09/06 11:32:00;;;;;;;47.33;42.13;;;25.40;56.60;;;;;;4757816;55;21023;-34
2022/09/06 11:37:06;;;;;;;45.97;41.00;;;25.40;56.50;;;;;;4776493;55;21480;-34
2022/09/06 11:43:20;;;;;;;47.97;42.47;;;25.40;56.60;;;;;;4739223;55;21674;-35
2022/09/06 11:48:33;;;;;;;44.78;38.83;;;25.40;56.70;;;;;;4746138;55;21007;-33
2022/09/06 11:54:17;;;;;;;42.75;36.78;;;25.40;56.60;;;;;;4791034;55;21003;-32
2022/09/06 11:59:35;;;;;;;37.92;33.88;;;25.50;56.60;;;;;;4764579;55;21047;-27
2022/09/06 12:05:15;;;;;;;39.33;34.15;;;25.50;55.80;;;;;;4750384;55;21042;-38
2022/09/06 12:13:52;;;;;;;37.15;33.17;;;25.50;55.70;;;;;;4784482;55;21027;-26
2022/09/06 12:18:53;;;;;;;37.08;31.23;;;25.50;55.30;;;;;;4756927;55;20963;-36
2022/09/06 12:23:54;;;;;;;38.75;33.08;;;25.50;55.40;;;;;;4746992;55;21047;-28
2022/09/06 12:28:56;;;;;;;34.45;30.77;;;25.50;55.10;;;;;;4806347;55;21123;-26
2022/09/06 12:34:04;;;;;;;33.65;29.35;;;25.60;55.00;;;;;;4779437;55;20971;-34
2022/09/06 12:39:10;;;;;;;31.00;27.65;;;25.60;54.90;;;;;;4747940;55;21464;-28
2022/09/06 12:44:13;;;;;;;29.45;26.17;;;25.60;54.50;;;;;;4736042;59;21950;-31
2022/09/06 12:49:20;;;;;;;30.05;26.95;;;25.70;54.50;;;;;;4758086;55;20987;-37
2022/09/06 12:54:25;;;;;;;;;;;25.70;54.90;;;;;;4743873;55;20963;-35
2022/09/06 12:59:26;;;;;;;28.33;25.00;;;25.70;54.80;;;;;;4735866;59;20087;-34
2022/09/06 13:04:40;;;;;;;33.97;28.75;;;25.70;54.60;;;;;;4751069;55;20990;-29
2022/09/06 13:09:45;;;;;;;30.35;27.13;;;25.70;54.20;;;;;;4737005;55;21020;-36
2022/09/06 13:14:50;;;;;;;32.20;28.73;;;25.70;54.20;;;;;;4736572;59;21039;-35
2022/09/06 13:19:52;;;;;;;33.25;27.52;;;25.70;53.80;;;;;;4736531;59;21036;-32
2022/09/06 13:24:55;;;;;;;32.17;27.50;;;25.70;54.00;;;;;;4738959;55;20999;-30
2022/09/06 13:32:13;;;;;;;34.22;27.45;;;25.80;54.00;;;;;;4758824;58;22121;-32
2022/09/06 13:37:14;;;;;;;32.30;28.23;;;25.80;54.00;;;;;;4780863;54;21999;-34
2022/09/06 13:42:34;;;;;;;33.65;28.48;;;25.80;54.20;;;;;;4758110;55;21089;-32
2022/09/06 13:47:35;;;;;;;37.75;32.83;;;25.80;54.40;;;;;;4755467;55;21518;-28
2022/09/06 13:52:36;;;;;;;40.38;33.80;;;25.80;54.50;;;;;;4757126;55;21061;-33
2022/09/06 13:57:36;;;;;;;40.12;35.42;;;25.80;54.40;;;;;;4750026;55;20998;-30
2022/09/06 14:02:40;;;;;;;40.95;34.97;;;25.80;54.60;;;;;;4819538;54;21143;-32
2022/09/06 14:07:41;;;;;;;44.55;37.65;;;25.80;54.50;;;;;;4807927;54;21581;-35
2022/09/06 14:12:42;;;;;;;38.88;33.35;;;25.80;54.60;;;;;;4809310;54;21032;-26
2022/09/06 14:17:42;;;;;;;42.67;34.85;;;25.80;54.00;;;;;;4807203;54;21023;-39
2022/09/06 14:22:43;;;;;;;38.03;33.65;;;25.80;53.70;;;;;;4797619;58;21501;-30
2022/09/06 14:27:47;;;;;;;34.60;30.80;;;25.80;53.70;;;;;;4805383;54;21004;-33
2022/09/06 14:32:48;;;;;;;36.15;30.25;;;25.80;53.30;;;;;;4836184;54;21474;-34
2022/09/06 14:37:49;;;;;;;37.08;30.58;;;25.80;53.40;;;;;;4821742;54;21007;-33
2022/09/06 14:42:50;;;;;;;34.05;30.37;;;25.70;53.70;;;;;;4825205;54;21601;-30
2022/09/06 14:47:51;;;;;;;33.10;29.75;;;25.70;54.00;;;;;;4811471;54;20995;-29
2022/09/06 14:52:52;;;;;;;33.30;29.80;;;25.70;54.80;;;;;;4795596;55;21004;-27
2022/09/06 14:57:53;;;;;;;33.28;29.80;;;25.60;54.30;;;;;;4795138;58;21055;-28
2022/09/06 15:02:54;;;;;;;32.75;29.12;;;25.60;54.50;;;;;;4806187;54;21075;-36
2022/09/06 15:07:55;;;;;;;32.70;29.20;;;25.60;54.70;;;;;;4803695;54;21024;-37
2022/09/06 15:12:56;;;;;;;31.17;28.08;;;25.50;55.10;;;;;;4799569;54;21484;-29
2022/09/06 15:17:57;;;;;;;32.28;28.90;;;25.50;54.90;;;;;;4832119;54;21190;-35
2022/09/06 15:22:58;;;;;;;31.08;27.45;;;25.50;55.00;;;;;;4806592;54;21028;-32
2022/09/06 15:27:58;;;;;;;31.08;27.50;;;25.50;55.10;;;;;;4823392;54;21063;-26
2022/09/06 15:32:59;;;;;;;30.90;27.70;;;25.50;55.20;;;;;;4806161;54;21020;-32
2022/09/06 15:38:00;;;;;;;30.48;27.13;;;25.50;55.40;;;;;;4806031;54;21075;-33
2022/09/06 15:43:02;;;;;;;30.08;27.10;;;25.40;55.40;;;;;;4819669;54;21074;-27
2022/09/06 15:48:02;;;;;;;31.33;27.95;;;25.40;55.40;;;;;;4803493;54;21569;-33
2022/09/06 15:53:03;;;;;;;30.70;27.48;;;25.40;55.60;;;;;;4818493;54;21177;-31
2022/09/06 15:58:04;;;;;;;28.52;25.52;;;25.40;55.60;;;;;;4828997;54;21489;-26
2022/09/06 16:03:05;;;;;;;30.25;27.15;;;25.40;55.80;;;;;;4823909;54;21059;-30
2022/09/06 16:08:06;;;;;;;30.35;27.35;;;25.40;56.40;;;;;;4810906;54;21505;-31
2022/09/06 16:13:07;;;;;;;30.67;27.58;;;25.40;56.00;;;;;;4795743;58;21102;-26
2022/09/06 16:18:07;;;;;;;29.65;26.65;;;25.40;55.90;;;;;;4821211;54;21119;-30
2022/09/06 16:23:08;;;;;;;30.80;27.80;;;25.40;56.10;;;;;;4809400;54;21044;-31
2022/09/06 16:28:09;;;;;;;30.50;27.30;;;25.30;56.00;;;;;;4800614;54;21023;-33
2022/09/06 16:33:11;;;;;;;29.10;26.10;;;25.30;56.10;;;;;;4797819;54;22341;-30
2022/09/06 16:38:12;;;;;;;28.35;25.52;;;25.30;56.20;;;;;;4808862;54;21174;-33
2022/09/06 16:43:13;;;;;;;29.63;26.52;;;25.30;56.20;;;;;;4795327;58;21143;-28
2022/09/06 16:48:14;;;;;;;29.25;26.15;;;25.30;56.30;;;;;;4808300;54;21095;-31
2022/09/06 16:53:15;;;;;;;28.45;25.55;;;25.30;56.40;;;;;;4796572;55;20991;-30
2022/09/06 16:58:16;;;;;;;28.60;25.70;;;25.30;56.40;;;;;;4809390;54;20996;-28
2022/09/06 17:03:17;;;;;;;29.10;26.08;;;25.30;56.50;;;;;;4794454;58;21129;-28
2022/09/06 17:08:20;;;;;;;28.25;25.37;;;25.30;56.50;;;;;;4836839;54;21044;-32
2022/09/06 17:13:21;;;;;;;28.60;25.70;;;25.30;56.50;;;;;;4794427;58;21092;-35
2022/09/06 17:18:24;;;;;;;28.55;25.70;;;25.30;56.70;;;;;;4810276;54;21549;-26
2022/09/06 17:23:26;;;;;;;28.42;25.62;;;25.30;56.60;;;;;;4848084;54;21057;-36
2022/09/06 17:28:27;;;;;;;27.17;24.33;;;25.30;56.70;;;;;;4831877;54;21079;-35
2022/09/06 17:33:30;;;;;;;27.75;24.92;;;25.30;56.70;;;;;;4820193;54;21485;-33
2022/09/06 17:38:30;;;;;;;28.15;25.35;;;25.30;56.80;;;;;;4855242;54;21091;-29
2022/09/06 17:43:34;;;;;;;27.55;24.85;;;25.20;56.80;;;;;;4805073;54;21106;-31
2022/09/06 17:48:34;;;;;;;29.50;25.92;;;25.20;56.80;;;;;;4795196;58;21055;-32
2022/09/06 17:53:36;;;;;;;26.58;23.98;;;25.30;56.90;;;;;;4800113;54;21020;-30
2022/09/06 17:58:39;;;;;;;27.27;24.35;;;25.20;56.90;;;;;;4815824;54;21012;-27
2022/09/06 18:03:41;;;;;;;27.65;24.75;;;25.30;57.10;;;;;;4795542;55;21080;-29
2022/09/06 18:08:43;;;;;;;27.65;24.95;;;25.20;57.00;;;;;;4821569;54;21028;-28
2022/09/06 18:13:45;;;;;;;26.98;24.27;;;25.20;57.10;;;;;;4809055;54;21469;-29
2022/09/06 18:18:51;;;;;;;27.30;24.60;;;25.30;57.20;;;;;;4825664;54;21538;-28
2022/09/06 18:23:53;;;;;;;27.37;24.67;;;25.20;57.10;;;;;;4836642;54;21067;-32
2022/09/06 18:28:54;;;;;;;28.20;25.35;;;25.30;57.40;;;;;;4807393;54;21012;-29
2022/09/06 18:33:57;;;;;;;26.80;24.17;;;25.20;57.30;;;;;;4810368;54;21537;-37
2022/09/06 18:39:03;;;;;;;28.05;25.12;;;25.20;57.40;;;;;;4803720;54;21458;-37
2022/09/06 18:44:04;;;;;;;26.92;24.27;;;25.20;57.40;;;;;;4815090;54;21458;-34
2022/09/06 18:49:07;;;;;;;28.17;23.67;;;25.20;57.40;;;;;;4795449;55;21008;-36
2022/09/06 18:54:09;;;;;;;26.80;24.10;;;25.20;57.50;;;;;;4843793;54;21000;-24
2022/09/06 18:59:11;;;;;;;26.77;23.98;;;25.20;57.50;;;;;;4817880;54;21505;-28
2022/09/06 19:04:12;;;;;;;26.02;23.35;;;25.20;57.60;;;;;;4802193;54;21071;-31
2022/09/06 19:09:15;;;;;;;26.37;23.77;;;25.20;57.70;;;;;;4813425;54;21113;-27
2022/09/06 19:14:16;;;;;;;24.92;22.48;;;25.20;57.70;;;;;;4846289;54;21007;-30
2022/09/06 19:19:17;;;;;;;25.67;22.98;;;25.20;57.70;;;;;;4848192;54;21079;-34
2022/09/06 19:24:21;;;;;;;24.90;22.25;;;25.20;57.80;;;;;;4801585;54;21039;-28
2022/09/06 19:29:22;;;;;;;25.73;23.02;;;25.20;57.90;;;;;;4798104;54;21055;-31
2022/09/06 19:34:23;;;;;;;26.75;23.87;;;25.20;57.90;;;;;;4825769;54;20984;-33
2022/09/06 19:39:27;;;;;;;26.90;24.10;;;25.20;57.90;;;;;;4795828;58;21055;-35
2022/09/06 19:44:28;;;;;;;24.98;22.30;;;25.20;58.00;;;;;;4809057;54;22312;-35
2022/09/06 19:49:29;;;;;;;24.50;22.10;;;25.20;58.10;;;;;;4812646;54;20992;-30
2022/09/06 19:54:30;;;;;;;25.12;22.52;;;25.20;58.10;;;;;;4820419;54;21577;-26
2022/09/06 19:59:34;;;;;;;25.50;22.92;;;25.20;58.10;;;;;;4805117;54;21055;-28
2022/09/06 20:04:35;;;;;;;24.75;22.17;;;25.20;58.10;;;;;;4800625;54;22065;-36
2022/09/06 20:09:36;;;;;;;24.65;22.10;;;25.20;58.20;;;;;;4799652;54;21063;-28
2022/09/06 20:14:37;;;;;;;24.90;22.33;;;25.20;58.20;;;;;;4825250;54;21121;-33
2022/09/06 20:19:38;;;;;;;24.42;21.85;;;25.20;58.30;;;;;;4802009;54;21020;-34
2022/09/06 20:24:38;;;;;;;23.95;21.50;;;25.20;58.20;;;;;;4798857;54;21332;-27
2022/09/06 20:29:39;;;;;;;24.48;21.87;;;25.20;58.30;;;;;;4795275;55;21493;-28
2022/09/06 20:34:41;;;;;;;25.05;22.40;;;25.20;58.30;;;;;;4836168;54;21008;-28
2022/09/06 20:39:42;;;;;;;23.30;21.05;;;25.10;58.30;;;;;;4800988;54;21063;-28
2022/09/06 20:44:43;;;;;;;22.73;20.50;;;25.20;58.30;;;;;;4802816;54;21008;-29
2022/09/06 20:49:44;;;;;;;24.12;21.58;;;25.20;59.10;;;;;;4797827;54;21130;-28
2022/09/06 20:54:45;;;;;;;24.70;21.80;;;25.20;58.40;;;;;;4798643;54;21487;-29
2022/09/06 20:59:46;;;;;;;23.17;20.77;;;25.10;58.40;;;;;;4795319;58;21027;-31
2022/09/06 21:04:46;;;;;;;23.95;21.35;;;25.20;58.40;;;;;;4795845;58;21568;-37
2022/09/06 21:09:47;;;;;;;22.62;20.00;;;25.10;58.40;;;;;;4845030;54;21003;-27
2022/09/06 21:14:48;;;;;;;23.62;21.08;;;25.10;58.30;;;;;;4804939;54;21032;-35
2022/09/06 21:19:49;;;;;;;23.23;20.92;;;25.20;58.60;;;;;;4796057;58;21020;-29
2022/09/06 21:24:50;;;;;;;22.10;19.83;;;25.10;58.40;;;;;;4796585;54;21035;-26
2022/09/06 21:29:50;;;;;;;23.27;20.95;;;25.10;58.50;;;;;;4805560;54;21011;-27
2022/09/06 21:34:51;;;;;;;22.10;19.85;;;25.10;58.40;;;;;;4801104;54;21485;-28
2022/09/06 21:39:52;;;;;;;22.10;20.00;;;25.10;58.60;;;;;;4814747;54;21569;-26
2022/09/06 21:44:53;;;;;;;22.35;20.15;;;25.10;58.60;;;;;;4840934;54;21032;-26
2022/09/06 21:49:54;;;;;;;22.10;19.80;;;25.10;58.70;;;;;;4853320;54;21011;-32
2022/09/06 21:54:55;;;;;;;23.00;20.62;;;25.10;58.70;;;;;;4833285;54;21052;-34
2022/09/06 21:59:56;;;;;;;22.75;20.48;;;25.10;58.70;;;;;;4847038;54;21498;-26
2022/09/06 22:04:56;;;;;;;22.15;19.95;;;25.10;58.80;;;;;;4851064;54;21004;-29
2022/09/06 22:09:57;;;;;;;21.08;18.80;;;25.10;58.80;;;;;;4810405;54;21019;-36
2022/09/06 22:14:58;;;;;;;21.62;19.62;;;25.10;58.90;;;;;;4802533;54;21004;-30
2022/09/06 22:19:59;;;;;;;21.33;19.23;;;25.10;58.80;;;;;;4820680;54;21019;-37
2022/09/06 22:25:00;;;;;;;21.10;19.02;;;25.10;58.80;;;;;;4806791;54;21020;-37
2022/09/06 22:30:00;;;;;;;21.20;19.08;;;25.10;58.90;;;;;;4832464;54;22083;-35
2022/09/06 22:35:04;;;;;;;21.73;18.50;;;25.10;58.80;;;;;;4805651;54;21051;-34
2022/09/06 22:40:06;;;;;;;20.92;18.90;;;25.10;59.00;;;;;;4830611;54;21473;-36
2022/09/06 22:45:08;;;;;;;21.20;19.08;;;25.10;59.00;;;;;;4795244;58;21012;-37
2022/09/06 22:50:09;;;;;;;20.40;18.17;;;25.10;59.00;;;;;;4901697;54;21048;-37
2022/09/06 22:55:10;;;;;;;20.65;18.60;;;25.10;59.10;;;;;;4800399;54;21516;-34
2022/09/06 23:00:12;;;;;;;21.08;19.02;;;25.10;59.10;;;;;;4827052;54;21088;-27
2022/09/06 23:05:13;;;;;;;20.73;18.73;;;25.10;59.00;;;;;;4839782;54;20984;-30
2022/09/06 23:10:14;;;;;;;19.12;17.33;;;25.10;59.10;;;;;;4826105;54;21052;-32
2022/09/06 23:15:15;;;;;;;19.55;17.55;;;25.10;58.90;;;;;;4797560;54;21008;-29
2022/09/06 23:20:16;;;;;;;20.92;18.83;;;25.10;59.00;;;;;;4842911;54;21581;-34
2022/09/06 23:25:17;;;;;;;19.35;17.55;;;25.10;59.20;;;;;;4831024;54;21609;-29
2022/09/06 23:30:18;;;;;;;19.25;17.33;;;25.10;59.10;;;;;;4799741;54;21099;-34
2022/09/06 23:35:19;;;;;;;19.70;17.80;;;25.10;59.20;;;;;;4800272;54;21005;-33
2022/09/06 23:40:20;;;;;;;20.30;18.30;;;25.10;59.20;;;;;;4798953;54;21004;-28
2022/09/06 23:45:21;;;;;;;19.17;17.37;;;25.00;59.10;;;;;;4795349;58;21004;-30
2022/09/06 23:50:21;;;;;;;19.95;18.05;;;25.10;59.80;;;;;;4797449;54;21071;-31
2022/09/06 23:55:22;;;;;;;19.85;17.85;;;25.00;59.20;;;;;;4814357;54;21027;-33
